sensor_id;sensor_type;location;lat;lon;timestamp;temperature;humidity
43862;DHT22;29510;52.140;5.034;2023-06-14T00:01:18;19.30;1.00
43862;DHT22;29510;52.140;5.034;2023-06-14T00:11:41;19.20;1.00
43862;DHT22;29510;52.140;5.034;2023-06-14T00:22:03;19.20;1.00
43862;DHT22;29510;52.140;5.034;2023-06-14T00:32:24;19.20;1.00
43862;DHT22;29510;52.140;5.034;2023-06-14T00:42:46;19.20;1.00
43862;DHT22;29510;52.140;5.034;2023-06-14T00:53:08;19.10;1.00
43862;DHT22;29510;52.140;5.034;2023-06-14T01:03:29;19.00;1.00
43862;DHT22;29510;52.140;5.034;2023-06-14T01:13:53;18.90;1.00
43862;DHT22;29510;52.140;5.034;2023-06-14T01:24:17;18.90;1.00
43862;DHT22;29510;52.140;5.034;2023-06-14T01:34:40;18.80;1.00
43862;DHT22;29510;52.140;5.034;2023-06-14T01:45:02;18.60;1.00
43862;DHT22;29510;52.140;5.034;2023-06-14T01:55:24;18.50;1.00
43862;DHT22;29510;52.140;5.034;2023-06-14T02:05:48;18.30;1.00
43862;DHT22;29510;52.140;5.034;2023-06-14T02:16:10;18.20;1.00
43862;DHT22;29510;52.140;5.034;2023-06-14T02:26:31;18.00;1.00
43862;DHT22;29510;52.140;5.034;2023-06-14T02:36:53;17.90;1.00
43862;DHT22;29510;52.140;5.034;2023-06-14T02:47:14;17.80;1.00
43862;DHT22;29510;52.140;5.034;2023-06-14T02:57:35;17.60;1.00
43862;DHT22;29510;52.140;5.034;2023-06-14T03:07:57;17.50;1.00
43862;DHT22;29510;52.140;5.034;2023-06-14T03:18:18;17.40;1.00
43862;DHT22;29510;52.140;5.034;2023-06-14T03:28:46;17.20;1.00
43862;DHT22;29510;52.140;5.034;2023-06-14T03:39:08;16.90;1.00
43862;DHT22;29510;52.140;5.034;2023-06-14T03:49:31;16.70;1.00
43862;DHT22;29510;52.140;5.034;2023-06-14T03:59:52;16.50;1.00
43862;DHT22;29510;52.140;5.034;2023-06-14T04:10:15;16.50;1.00
43862;DHT22;29510;52.140;5.034;2023-06-14T04:20:36;16.30;1.00
43862;DHT22;29510;52.140;5.034;2023-06-14T04:30:58;16.40;1.00
43862;DHT22;29510;52.140;5.034;2023-06-14T04:41:22;16.30;1.00
43862;DHT22;29510;52.140;5.034;2023-06-14T04:51:45;16.50;1.00
43862;DHT22;29510;52.140;5.034;2023-06-14T05:02:06;16.60;1.00
43862;DHT22;29510;52.140;5.034;2023-06-14T05:12:28;16.70;1.00
43862;DHT22;29510;52.140;5.034;2023-06-14T05:22:53;16.70;1.00
43862;DHT22;29510;52.140;5.034;2023-06-14T05:33:15;17.00;1.00
43862;DHT22;29510;52.140;5.034;2023-06-14T05:43:36;17.40;1.00
43862;DHT22;29510;52.140;5.034;2023-06-14T05:53:58;17.90;1.00
43862;DHT22;29510;52.140;5.034;2023-06-14T06:04:19;18.20;1.00
43862;DHT22;29510;52.140;5.034;2023-06-14T06:14:41;18.70;1.00
43862;DHT22;29510;52.140;5.034;2023-06-14T06:25:02;18.70;1.00
43862;DHT22;29510;52.140;5.034;2023-06-14T06:35:24;19.00;1.00
43862;DHT22;29510;52.140;5.034;2023-06-14T06:45:45;19.30;1.00
43862;DHT22;29510;52.140;5.034;2023-06-14T06:56:07;19.60;1.00
43862;DHT22;29510;52.140;5.034;2023-06-14T07:06:28;19.80;1.00
43862;DHT22;29510;52.140;5.034;2023-06-14T07:16:49;20.30;1.00
43862;DHT22;29510;52.140;5.034;2023-06-14T07:27:11;20.70;1.00
43862;DHT22;29510;52.140;5.034;2023-06-14T07:37:34;21.00;1.00
43862;DHT22;29510;52.140;5.034;2023-06-14T07:47:55;21.30;1.00
43862;DHT22;29510;52.140;5.034;2023-06-14T07:58:17;21.50;1.00
43862;DHT22;29510;52.140;5.034;2023-06-14T08:08:38;22.00;1.00
43862;DHT22;29510;52.140;5.034;2023-06-14T08:19:00;22.10;1.00
43862;DHT22;29510;52.140;5.034;2023-06-14T08:29:22;22.40;1.00
43862;DHT22;29510;52.140;5.034;2023-06-14T08:39:43;22.80;1.00
43862;DHT22;29510;52.140;5.034;2023-06-14T08:50:06;23.00;1.00
43862;DHT22;29510;52.140;5.034;2023-06-14T09:00:28;23.50;1.00
43862;DHT22;29510;52.140;5.034;2023-06-14T09:10:50;23.80;1.00
43862;DHT22;29510;52.140;5.034;2023-06-14T09:21:12;24.20;1.00
43862;DHT22;29510;52.140;5.034;2023-06-14T09:31:35;24.30;1.00
43862;DHT22;29510;52.140;5.034;2023-06-14T09:41:56;24.70;1.00
43862;DHT22;29510;52.140;5.034;2023-06-14T09:52:19;25.00;1.00
43862;DHT22;29510;52.140;5.034;2023-06-14T10:02:42;25.10;1.00
43862;DHT22;29510;52.140;5.034;2023-06-14T10:13:09;25.20;1.00
43862;DHT22;29510;52.140;5.034;2023-06-14T10:23:33;25.30;1.00
43862;DHT22;29510;52.140;5.034;2023-06-14T10:33:57;25.50;1.00
43862;DHT22;29510;52.140;5.034;2023-06-14T10:55:08;25.80;1.00
43862;DHT22;29510;52.140;5.034;2023-06-14T11:05:48;25.90;1.00
43862;DHT22;29510;52.140;5.034;2023-06-14T11:16:16;26.00;1.00
43862;DHT22;29510;52.140;5.034;2023-06-14T11:26:39;26.20;1.00
43862;DHT22;29510;52.140;5.034;2023-06-14T11:37:01;26.50;1.00
43862;DHT22;29510;52.140;5.034;2023-06-14T11:47:22;26.80;1.00
43862;DHT22;29510;52.140;5.034;2023-06-14T11:57:46;27.00;1.00
43862;DHT22;29510;52.140;5.034;2023-06-14T12:08:07;26.90;1.00
43862;DHT22;29510;52.140;5.034;2023-06-14T12:18:33;26.80;1.00
43862;DHT22;29510;52.140;5.034;2023-06-14T12:28:56;26.90;1.00
43862;DHT22;29510;52.140;5.034;2023-06-14T12:39:17;27.00;1.00
43862;DHT22;29510;52.140;5.034;2023-06-14T12:49:39;26.90;1.00
43862;DHT22;29510;52.140;5.034;2023-06-14T13:00:01;26.80;1.00
43862;DHT22;29510;52.140;5.034;2023-06-14T13:10:22;27.20;1.00
43862;DHT22;29510;52.140;5.034;2023-06-14T13:20:45;27.50;1.00
43862;DHT22;29510;52.140;5.034;2023-06-14T13:31:07;27.50;1.00
43862;DHT22;29510;52.140;5.034;2023-06-14T13:41:28;27.50;1.00
43862;DHT22;29510;52.140;5.034;2023-06-14T13:51:55;27.30;1.00
43862;DHT22;29510;52.140;5.034;2023-06-14T14:02:16;27.40;1.00
43862;DHT22;29510;52.140;5.034;2023-06-14T14:12:37;27.00;1.00
43862;DHT22;29510;52.140;5.034;2023-06-14T14:22:59;26.80;1.00
43862;DHT22;29510;52.140;5.034;2023-06-14T14:33:21;26.80;1.00
43862;DHT22;29510;52.140;5.034;2023-06-14T14:43:42;26.90;1.00
43862;DHT22;29510;52.140;5.034;2023-06-14T14:54:04;26.70;1.00
43862;DHT22;29510;52.140;5.034;2023-06-14T15:04:26;26.80;1.00
43862;DHT22;29510;52.140;5.034;2023-06-14T15:14:47;26.60;1.00
43862;DHT22;29510;52.140;5.034;2023-06-14T15:25:09;26.40;1.00
43862;DHT22;29510;52.140;5.034;2023-06-14T15:35:30;26.20;1.00
43862;DHT22;29510;52.140;5.034;2023-06-14T15:45:51;26.20;1.00
43862;DHT22;29510;52.140;5.034;2023-06-14T15:56:13;26.10;1.00
43862;DHT22;29510;52.140;5.034;2023-06-14T16:06:34;26.10;1.00
43862;DHT22;29510;52.140;5.034;2023-06-14T16:16:57;26.00;1.00
43862;DHT22;29510;52.140;5.034;2023-06-14T16:27:18;25.90;1.00
43862;DHT22;29510;52.140;5.034;2023-06-14T16:37:39;25.80;1.00
43862;DHT22;29510;52.140;5.034;2023-06-14T16:48:01;25.70;1.00
43862;DHT22;29510;52.140;5.034;2023-06-14T16:58:22;25.60;1.00
43862;DHT22;29510;52.140;5.034;2023-06-14T17:08:43;25.40;1.00
43862;DHT22;29510;52.140;5.034;2023-06-14T17:19:05;25.40;1.00
43862;DHT22;29510;52.140;5.034;2023-06-14T17:29:26;25.40;1.00
43862;DHT22;29510;52.140;5.034;2023-06-14T17:39:47;25.30;1.00
43862;DHT22;29510;52.140;5.034;2023-06-14T17:50:09;25.20;1.00
43862;DHT22;29510;52.140;5.034;2023-06-14T18:00:30;25.10;1.00
43862;DHT22;29510;52.140;5.034;2023-06-14T18:10:52;24.90;1.00
43862;DHT22;29510;52.140;5.034;2023-06-14T18:21:13;24.70;1.00
43862;DHT22;29510;52.140;5.034;2023-06-14T18:31:34;24.70;1.00
43862;DHT22;29510;52.140;5.034;2023-06-14T18:41:56;24.60;1.00
43862;DHT22;29510;52.140;5.034;2023-06-14T18:52:17;24.40;1.00
43862;DHT22;29510;52.140;5.034;2023-06-14T19:02:39;24.20;1.00
43862;DHT22;29510;52.140;5.034;2023-06-14T19:13:00;24.00;1.00
43862;DHT22;29510;52.140;5.034;2023-06-14T19:23:21;23.80;1.00
43862;DHT22;29510;52.140;5.034;2023-06-14T19:33:45;23.70;1.00
43862;DHT22;29510;52.140;5.034;2023-06-14T19:44:06;23.50;1.00
43862;DHT22;29510;52.140;5.034;2023-06-14T19:54:28;23.30;1.00
43862;DHT22;29510;52.140;5.034;2023-06-14T20:04:49;23.10;1.00
43862;DHT22;29510;52.140;5.034;2023-06-14T20:15:10;22.90;1.00
43862;DHT22;29510;52.140;5.034;2023-06-14T20:25:32;22.60;1.00
43862;DHT22;29510;52.140;5.034;2023-06-14T20:35:53;22.20;1.00
43862;DHT22;29510;52.140;5.034;2023-06-14T20:46:15;22.00;1.00
43862;DHT22;29510;52.140;5.034;2023-06-14T20:56:38;21.70;1.00
43862;DHT22;29510;52.140;5.034;2023-06-14T21:06:59;21.40;1.00
43862;DHT22;29510;52.140;5.034;2023-06-14T21:17:21;21.20;1.00
43862;DHT22;29510;52.140;5.034;2023-06-14T21:27:42;21.00;1.00
43862;DHT22;29510;52.140;5.034;2023-06-14T21:38:03;20.70;1.00
43862;DHT22;29510;52.140;5.034;2023-06-14T21:48:25;20.40;1.00
43862;DHT22;29510;52.140;5.034;2023-06-14T21:58:46;20.10;1.00
43862;DHT22;29510;52.140;5.034;2023-06-14T22:09:08;19.80;1.00
43862;DHT22;29510;52.140;5.034;2023-06-14T22:19:30;19.60;1.00
43862;DHT22;29510;52.140;5.034;2023-06-14T22:29:52;19.40;1.00
43862;DHT22;29510;52.140;5.034;2023-06-14T22:40:17;19.30;1.00
43862;DHT22;29510;52.140;5.034;2023-06-14T22:50:39;19.10;1.00
43862;DHT22;29510;52.140;5.034;2023-06-14T23:01:00;18.90;1.00
43862;DHT22;29510;52.140;5.034;2023-06-14T23:11:22;18.90;1.00
43862;DHT22;29510;52.140;5.034;2023-06-14T23:21:44;18.90;1.00
43862;DHT22;29510;52.140;5.034;2023-06-14T23:32:07;18.80;1.00
43862;DHT22;29510;52.140;5.034;2023-06-14T23:42:30;18.80;1.00
43862;DHT22;29510;52.140;5.034;2023-06-14T23:52:52;18.70;1.00
